sensor_id;sensor_type;location;lat;lon;timestamp;temperature;humidity
41630;DHT22;27322;49.488;8.480;2022-09-12T00:02:19;16.40;99.90
41630;DHT22;27322;49.488;8.480;2022-09-12T00:04:45;16.40;99.90
41630;DHT22;27322;49.488;8.480;2022-09-12T00:07:10;16.40;99.90
41630;DHT22;27322;49.488;8.480;2022-09-12T00:09:36;16.40;99.90
41630;DHT22;27322;49.488;8.480;2022-09-12T00:12:03;16.30;99.90
41630;DHT22;27322;49.488;8.480;2022-09-12T00:14:28;16.30;99.90
41630;DHT22;27322;49.488;8.480;2022-09-12T00:16:57;16.30;99.90
41630;DHT22;27322;49.488;8.480;2022-09-12T00:19:24;16.30;99.90
41630;DHT22;27322;49.488;8.480;2022-09-12T00:21:50;16.30;99.90
41630;DHT22;27322;49.488;8.480;2022-09-12T00:24:16;16.30;99.90
41630;DHT22;27322;49.488;8.480;2022-09-12T00:26:41;16.40;99.90
41630;DHT22;27322;49.488;8.480;2022-09-12T00:29:07;16.30;99.90
41630;DHT22;27322;49.488;8.480;2022-09-12T00:31:34;16.40;99.90
41630;DHT22;27322;49.488;8.480;2022-09-12T00:34:00;16.30;99.90
41630;DHT22;27322;49.488;8.480;2022-09-12T00:36:27;16.30;99.90
41630;DHT22;27322;49.488;8.480;2022-09-12T00:38:54;16.20;99.90
41630;DHT22;27322;49.488;8.480;2022-09-12T00:41:25;16.30;99.90
41630;DHT22;27322;49.488;8.480;2022-09-12T00:44:00;16.30;99.90
41630;DHT22;27322;49.488;8.480;2022-09-12T00:46:40;16.30;99.90
41630;DHT22;27322;49.488;8.480;2022-09-12T00:51:43;16.20;99.90
41630;DHT22;27322;49.488;8.480;2022-09-12T00:54:14;16.20;99.90
41630;DHT22;27322;49.488;8.480;2022-09-12T00:56:42;16.20;99.90
41630;DHT22;27322;49.488;8.480;2022-09-12T00:59:16;16.20;99.90
41630;DHT22;27322;49.488;8.480;2022-09-12T01:01:43;16.20;99.90
41630;DHT22;27322;49.488;8.480;2022-09-12T01:04:11;16.20;99.90
41630;DHT22;27322;49.488;8.480;2022-09-12T01:06:42;16.20;99.90
41630;DHT22;27322;49.488;8.480;2022-09-12T01:09:14;16.20;99.90
41630;DHT22;27322;49.488;8.480;2022-09-12T01:11:41;16.10;99.90
41630;DHT22;27322;49.488;8.480;2022-09-12T01:14:10;16.10;99.90
41630;DHT22;27322;49.488;8.480;2022-09-12T01:16:36;16.00;99.90
41630;DHT22;27322;49.488;8.480;2022-09-12T01:24:47;15.90;99.90
41630;DHT22;27322;49.488;8.480;2022-09-12T01:30:04;16.00;99.90
41630;DHT22;27322;49.488;8.480;2022-09-12T01:32:53;16.00;99.90
41630;DHT22;27322;49.488;8.480;2022-09-12T01:38:21;15.90;99.90
41630;DHT22;27322;49.488;8.480;2022-09-12T01:40:58;15.90;99.90
41630;DHT22;27322;49.488;8.480;2022-09-12T01:49:11;15.80;99.90
41630;DHT22;27322;49.488;8.480;2022-09-12T01:51:46;15.80;99.90
41630;DHT22;27322;49.488;8.480;2022-09-12T01:54:22;15.80;99.90
41630;DHT22;27322;49.488;8.480;2022-09-12T01:56:52;15.90;99.90
41630;DHT22;27322;49.488;8.480;2022-09-12T01:59:24;15.80;99.90
41630;DHT22;27322;49.488;8.480;2022-09-12T02:02:06;15.90;99.90
41630;DHT22;27322;49.488;8.480;2022-09-12T02:04:59;15.90;99.90
41630;DHT22;27322;49.488;8.480;2022-09-12T02:12:52;15.70;99.90
41630;DHT22;27322;49.488;8.480;2022-09-12T02:15:24;15.60;99.90
41630;DHT22;27322;49.488;8.480;2022-09-12T02:17:54;15.60;99.90
41630;DHT22;27322;49.488;8.480;2022-09-12T02:20:25;15.60;99.90
41630;DHT22;27322;49.488;8.480;2022-09-12T02:22:52;15.60;99.90
41630;DHT22;27322;49.488;8.480;2022-09-12T02:25:21;15.50;99.90
41630;DHT22;27322;49.488;8.480;2022-09-12T02:27:57;15.60;99.90
41630;DHT22;27322;49.488;8.480;2022-09-12T02:30:24;15.60;99.90
41630;DHT22;27322;49.488;8.480;2022-09-12T02:32:59;15.60;99.90
41630;DHT22;27322;49.488;8.480;2022-09-12T02:35:46;15.60;99.90
41630;DHT22;27322;49.488;8.480;2022-09-12T02:38:26;15.50;99.90
41630;DHT22;27322;49.488;8.480;2022-09-12T02:40:54;15.50;99.90
41630;DHT22;27322;49.488;8.480;2022-09-12T02:43:20;15.50;99.90
41630;DHT22;27322;49.488;8.480;2022-09-12T02:45:46;15.60;99.90
41630;DHT22;27322;49.488;8.480;2022-09-12T02:48:18;15.60;99.90
41630;DHT22;27322;49.488;8.480;2022-09-12T02:50:45;15.60;99.90
41630;DHT22;27322;49.488;8.480;2022-09-12T02:53:11;15.50;99.90
41630;DHT22;27322;49.488;8.480;2022-09-12T02:55:39;15.50;99.90
41630;DHT22;27322;49.488;8.480;2022-09-12T02:58:12;15.40;99.90
41630;DHT22;27322;49.488;8.480;2022-09-12T03:05:56;15.50;99.90
41630;DHT22;27322;49.488;8.480;2022-09-12T03:16:52;15.30;99.90
41630;DHT22;27322;49.488;8.480;2022-09-12T03:23:15;15.40;99.90
41630;DHT22;27322;49.488;8.480;2022-09-12T03:25:48;15.40;99.90
41630;DHT22;27322;49.488;8.480;2022-09-12T03:28:16;15.40;99.90
41630;DHT22;27322;49.488;8.480;2022-09-12T03:30:46;15.40;99.90
41630;DHT22;27322;49.488;8.480;2022-09-12T03:33:18;15.30;99.90
41630;DHT22;27322;49.488;8.480;2022-09-12T03:35:45;15.30;99.90
41630;DHT22;27322;49.488;8.480;2022-09-12T03:38:11;15.30;99.90
41630;DHT22;27322;49.488;8.480;2022-09-12T03:40:38;15.30;99.90
41630;DHT22;27322;49.488;8.480;2022-09-12T03:43:05;15.30;99.90
41630;DHT22;27322;49.488;8.480;2022-09-12T03:45:31;15.30;99.90
41630;DHT22;27322;49.488;8.480;2022-09-12T03:47:57;15.30;99.90
41630;DHT22;27322;49.488;8.480;2022-09-12T03:50:23;15.30;99.90
41630;DHT22;27322;49.488;8.480;2022-09-12T03:52:48;15.30;99.90
41630;DHT22;27322;49.488;8.480;2022-09-12T03:55:14;15.20;99.90
41630;DHT22;27322;49.488;8.480;2022-09-12T03:57:40;15.30;99.90
41630;DHT22;27322;49.488;8.480;2022-09-12T04:00:06;15.30;99.90
41630;DHT22;27322;49.488;8.480;2022-09-12T04:02:33;15.20;99.90
41630;DHT22;27322;49.488;8.480;2022-09-12T04:04:59;15.20;99.90
41630;DHT22;27322;49.488;8.480;2022-09-12T04:07:25;15.20;99.90
41630;DHT22;27322;49.488;8.480;2022-09-12T04:09:51;15.20;99.90
41630;DHT22;27322;49.488;8.480;2022-09-12T04:12:21;15.20;99.90
41630;DHT22;27322;49.488;8.480;2022-09-12T04:14:47;15.20;99.90
41630;DHT22;27322;49.488;8.480;2022-09-12T04:17:13;15.20;99.90
41630;DHT22;27322;49.488;8.480;2022-09-12T04:19:39;15.10;99.90
41630;DHT22;27322;49.488;8.480;2022-09-12T04:22:04;15.10;99.90
41630;DHT22;27322;49.488;8.480;2022-09-12T04:24:30;15.10;99.90
41630;DHT22;27322;49.488;8.480;2022-09-12T04:26:56;15.10;99.90
41630;DHT22;27322;49.488;8.480;2022-09-12T04:29:22;15.10;99.90
41630;DHT22;27322;49.488;8.480;2022-09-12T04:31:48;15.00;99.90
41630;DHT22;27322;49.488;8.480;2022-09-12T04:34:14;15.00;99.90
41630;DHT22;27322;49.488;8.480;2022-09-12T04:36:40;15.10;99.90
41630;DHT22;27322;49.488;8.480;2022-09-12T04:39:06;15.00;99.90
41630;DHT22;27322;49.488;8.480;2022-09-12T04:41:36;15.00;99.90
41630;DHT22;27322;49.488;8.480;2022-09-12T04:44:05;15.00;99.90
41630;DHT22;27322;49.488;8.480;2022-09-12T04:46:37;14.90;99.90
41630;DHT22;27322;49.488;8.480;2022-09-12T04:49:04;14.90;99.90
41630;DHT22;27322;49.488;8.480;2022-09-12T04:51:31;14.90;99.90
41630;DHT22;27322;49.488;8.480;2022-09-12T04:54:00;14.90;99.90
41630;DHT22;27322;49.488;8.480;2022-09-12T04:56:27;14.90;99.90
41630;DHT22;27322;49.488;8.480;2022-09-12T04:58:56;14.90;99.90
41630;DHT22;27322;49.488;8.480;2022-09-12T05:01:22;14.80;99.90
41630;DHT22;27322;49.488;8.480;2022-09-12T05:03:49;14.80;99.90
41630;DHT22;27322;49.488;8.480;2022-09-12T05:06:22;14.80;99.90
41630;DHT22;27322;49.488;8.480;2022-09-12T05:08:49;14.90;99.90
41630;DHT22;27322;49.488;8.480;2022-09-12T05:11:17;15.00;99.90
41630;DHT22;27322;49.488;8.480;2022-09-12T05:13:43;15.00;99.90
41630;DHT22;27322;49.488;8.480;2022-09-12T05:16:11;15.00;99.90
41630;DHT22;27322;49.488;8.480;2022-09-12T05:18:37;15.00;99.90
41630;DHT22;27322;49.488;8.480;2022-09-12T05:21:05;15.00;99.90
41630;DHT22;27322;49.488;8.480;2022-09-12T05:23:31;14.90;99.90
41630;DHT22;27322;49.488;8.480;2022-09-12T05:25:59;14.90;99.90
41630;DHT22;27322;49.488;8.480;2022-09-12T05:28:29;14.90;99.90
41630;DHT22;27322;49.488;8.480;2022-09-12T05:31:12;14.90;99.90
41630;DHT22;27322;49.488;8.480;2022-09-12T05:33:41;14.90;99.90
41630;DHT22;27322;49.488;8.480;2022-09-12T05:36:10;14.90;99.90
41630;DHT22;27322;49.488;8.480;2022-09-12T05:38:36;14.90;99.90
41630;DHT22;27322;49.488;8.480;2022-09-12T05:43:31;14.90;99.90
41630;DHT22;27322;49.488;8.480;2022-09-12T05:46:01;14.90;99.90
41630;DHT22;27322;49.488;8.480;2022-09-12T05:48:27;14.90;99.90
41630;DHT22;27322;49.488;8.480;2022-09-12T05:51:06;14.90;99.90
41630;DHT22;27322;49.488;8.480;2022-09-12T05:53:34;15.00;99.90
41630;DHT22;27322;49.488;8.480;2022-09-12T05:56:08;15.00;99.90
41630;DHT22;27322;49.488;8.480;2022-09-12T05:58:36;15.00;99.90
41630;DHT22;27322;49.488;8.480;2022-09-12T06:01:04;15.00;99.90
41630;DHT22;27322;49.488;8.480;2022-09-12T06:03:31;15.00;99.90
41630;DHT22;27322;49.488;8.480;2022-09-12T06:06:00;15.10;99.90
41630;DHT22;27322;49.488;8.480;2022-09-12T06:08:27;15.10;99.90
41630;DHT22;27322;49.488;8.480;2022-09-12T06:11:01;15.10;99.90
41630;DHT22;27322;49.488;8.480;2022-09-12T06:13:27;15.10;99.90
41630;DHT22;27322;49.488;8.480;2022-09-12T06:15:52;15.10;99.90
41630;DHT22;27322;49.488;8.480;2022-09-12T06:18:19;15.10;99.90
41630;DHT22;27322;49.488;8.480;2022-09-12T06:20:45;15.20;99.90
41630;DHT22;27322;49.488;8.480;2022-09-12T06:23:11;15.20;99.90
41630;DHT22;27322;49.488;8.480;2022-09-12T06:25:37;15.30;99.90
41630;DHT22;27322;49.488;8.480;2022-09-12T06:28:03;15.30;99.90
41630;DHT22;27322;49.488;8.480;2022-09-12T06:30:29;15.30;99.90
41630;DHT22;27322;49.488;8.480;2022-09-12T06:32:54;15.40;99.90
41630;DHT22;27322;49.488;8.480;2022-09-12T06:35:21;15.50;99.90
41630;DHT22;27322;49.488;8.480;2022-09-12T06:37:48;15.50;99.90
41630;DHT22;27322;49.488;8.480;2022-09-12T06:40:13;15.60;99.90
41630;DHT22;27322;49.488;8.480;2022-09-12T06:42:39;15.60;99.90
41630;DHT22;27322;49.488;8.480;2022-09-12T06:45:05;15.60;99.90
41630;DHT22;27322;49.488;8.480;2022-09-12T06:47:31;15.70;99.90
41630;DHT22;27322;49.488;8.480;2022-09-12T06:49:57;15.70;99.90
41630;DHT22;27322;49.488;8.480;2022-09-12T06:52:23;15.80;99.90
41630;DHT22;27322;49.488;8.480;2022-09-12T06:54:49;15.90;99.90
41630;DHT22;27322;49.488;8.480;2022-09-12T06:57:14;15.90;99.90
41630;DHT22;27322;49.488;8.480;2022-09-12T06:59:43;16.00;99.90
41630;DHT22;27322;49.488;8.480;2022-09-12T07:02:09;16.10;99.90
41630;DHT22;27322;49.488;8.480;2022-09-12T07:04:34;16.10;99.90
41630;DHT22;27322;49.488;8.480;2022-09-12T07:07:01;16.20;99.90
41630;DHT22;27322;49.488;8.480;2022-09-12T07:09:27;16.30;99.90
41630;DHT22;27322;49.488;8.480;2022-09-12T07:11:55;16.40;99.90
41630;DHT22;27322;49.488;8.480;2022-09-12T07:14:20;16.40;99.90
41630;DHT22;27322;49.488;8.480;2022-09-12T07:16:46;16.50;99.90
41630;DHT22;27322;49.488;8.480;2022-09-12T07:19:12;16.60;99.90
41630;DHT22;27322;49.488;8.480;2022-09-12T07:21:37;16.60;99.90
41630;DHT22;27322;49.488;8.480;2022-09-12T07:24:08;16.70;99.90
41630;DHT22;27322;49.488;8.480;2022-09-12T07:26:34;16.70;99.90
41630;DHT22;27322;49.488;8.480;2022-09-12T07:29:00;16.90;99.90
41630;DHT22;27322;49.488;8.480;2022-09-12T07:31:28;16.90;99.90
41630;DHT22;27322;49.488;8.480;2022-09-12T07:33:54;16.90;99.90
41630;DHT22;27322;49.488;8.480;2022-09-12T07:36:22;17.00;99.90
41630;DHT22;27322;49.488;8.480;2022-09-12T07:38:52;17.00;99.90
41630;DHT22;27322;49.488;8.480;2022-09-12T07:41:20;17.10;99.90
41630;DHT22;27322;49.488;8.480;2022-09-12T07:43:46;17.10;99.90
41630;DHT22;27322;49.488;8.480;2022-09-12T07:46:13;17.10;99.90
41630;DHT22;27322;49.488;8.480;2022-09-12T07:48:39;17.10;99.90
41630;DHT22;27322;49.488;8.480;2022-09-12T07:51:08;17.20;99.90
41630;DHT22;27322;49.488;8.480;2022-09-12T07:53:37;17.20;99.90
41630;DHT22;27322;49.488;8.480;2022-09-12T07:56:04;17.30;99.90
41630;DHT22;27322;49.488;8.480;2022-09-12T07:58:30;17.30;99.90
41630;DHT22;27322;49.488;8.480;2022-09-12T08:01:12;17.40;99.90
41630;DHT22;27322;49.488;8.480;2022-09-12T08:03:39;17.50;99.90
41630;DHT22;27322;49.488;8.480;2022-09-12T08:06:07;17.50;99.90
41630;DHT22;27322;49.488;8.480;2022-09-12T08:08:33;17.60;99.90
41630;DHT22;27322;49.488;8.480;2022-09-12T08:11:00;17.60;99.90
41630;DHT22;27322;49.488;8.480;2022-09-12T08:13:27;17.70;99.90
41630;DHT22;27322;49.488;8.480;2022-09-12T08:16:01;17.70;99.90
41630;DHT22;27322;49.488;8.480;2022-09-12T08:18:29;17.80;99.90
41630;DHT22;27322;49.488;8.480;2022-09-12T08:20:59;17.80;99.90
41630;DHT22;27322;49.488;8.480;2022-09-12T08:23:25;17.90;99.90
41630;DHT22;27322;49.488;8.480;2022-09-12T08:25:55;17.90;99.90
41630;DHT22;27322;49.488;8.480;2022-09-12T08:28:21;17.90;99.90
41630;DHT22;27322;49.488;8.480;2022-09-12T08:30:46;18.00;99.90
41630;DHT22;27322;49.488;8.480;2022-09-12T08:33:12;18.00;99.90
41630;DHT22;27322;49.488;8.480;2022-09-12T08:35:38;18.10;99.90
41630;DHT22;27322;49.488;8.480;2022-09-12T08:38:03;18.20;99.90
41630;DHT22;27322;49.488;8.480;2022-09-12T08:40:29;18.20;99.90
41630;DHT22;27322;49.488;8.480;2022-09-12T08:43:06;18.30;99.90
41630;DHT22;27322;49.488;8.480;2022-09-12T08:45:41;18.30;99.90
41630;DHT22;27322;49.488;8.480;2022-09-12T08:48:13;18.30;99.90
41630;DHT22;27322;49.488;8.480;2022-09-12T08:50:39;18.40;99.90
41630;DHT22;27322;49.488;8.480;2022-09-12T08:53:13;18.40;99.90
41630;DHT22;27322;49.488;8.480;2022-09-12T08:55:40;18.50;99.90
41630;DHT22;27322;49.488;8.480;2022-09-12T09:07:17;19.00;99.90
41630;DHT22;27322;49.488;8.480;2022-09-12T09:18:23;19.70;99.90
41630;DHT22;27322;49.488;8.480;2022-09-12T09:25:58;19.90;99.90
41630;DHT22;27322;49.488;8.480;2022-09-12T09:28:43;20.20;99.90
41630;DHT22;27322;49.488;8.480;2022-09-12T09:31:21;20.40;99.90
41630;DHT22;27322;49.488;8.480;2022-09-12T09:33:49;20.60;99.90
41630;DHT22;27322;49.488;8.480;2022-09-12T09:36:20;20.80;99.90
41630;DHT22;27322;49.488;8.480;2022-09-12T09:41:32;21.00;99.90
41630;DHT22;27322;49.488;8.480;2022-09-12T09:44:01;20.90;99.90
41630;DHT22;27322;49.488;8.480;2022-09-12T09:46:27;20.80;99.90
41630;DHT22;27322;49.488;8.480;2022-09-12T09:48:54;20.80;99.90
41630;DHT22;27322;49.488;8.480;2022-09-12T09:51:26;20.80;99.90
41630;DHT22;27322;49.488;8.480;2022-09-12T09:56:36;20.90;99.90
41630;DHT22;27322;49.488;8.480;2022-09-12T09:59:19;20.80;99.90
41630;DHT22;27322;49.488;8.480;2022-09-12T10:04:21;20.80;99.90
41630;DHT22;27322;49.488;8.480;2022-09-12T10:06:51;20.80;99.90
41630;DHT22;27322;49.488;8.480;2022-09-12T10:11:45;20.90;99.90
41630;DHT22;27322;49.488;8.480;2022-09-12T10:16:55;21.00;99.90
41630;DHT22;27322;49.488;8.480;2022-09-12T10:19:33;21.00;99.90
41630;DHT22;27322;49.488;8.480;2022-09-12T10:22:00;21.00;99.90
41630;DHT22;27322;49.488;8.480;2022-09-12T10:27:19;21.10;99.90
41630;DHT22;27322;49.488;8.480;2022-09-12T10:29:50;21.20;99.90
41630;DHT22;27322;49.488;8.480;2022-09-12T10:32:22;21.30;99.90
41630;DHT22;27322;49.488;8.480;2022-09-12T10:34:53;21.30;99.90
41630;DHT22;27322;49.488;8.480;2022-09-12T10:37:24;21.40;99.90
41630;DHT22;27322;49.488;8.480;2022-09-12T10:39:55;21.50;99.90
41630;DHT22;27322;49.488;8.480;2022-09-12T10:42:53;21.80;99.90
41630;DHT22;27322;49.488;8.480;2022-09-12T10:45:27;22.30;99.90
41630;DHT22;27322;49.488;8.480;2022-09-12T10:47:55;22.60;99.90
41630;DHT22;27322;49.488;8.480;2022-09-12T10:52:48;22.60;99.90
41630;DHT22;27322;49.488;8.480;2022-09-12T10:55:14;22.40;99.30
41630;DHT22;27322;49.488;8.480;2022-09-12T11:00:45;22.10;99.70
41630;DHT22;27322;49.488;8.480;2022-09-12T11:03:22;22.00;98.50
41630;DHT22;27322;49.488;8.480;2022-09-12T11:06:09;22.00;98.50
41630;DHT22;27322;49.488;8.480;2022-09-12T11:08:41;22.00;98.40
41630;DHT22;27322;49.488;8.480;2022-09-12T11:17:04;22.10;97.10
41630;DHT22;27322;49.488;8.480;2022-09-12T11:27:59;22.30;96.80
41630;DHT22;27322;49.488;8.480;2022-09-12T11:30:46;22.30;95.90
41630;DHT22;27322;49.488;8.480;2022-09-12T11:33:38;22.30;96.10
41630;DHT22;27322;49.488;8.480;2022-09-12T11:36:16;22.30;96.90
41630;DHT22;27322;49.488;8.480;2022-09-12T11:38:50;22.30;97.30
41630;DHT22;27322;49.488;8.480;2022-09-12T11:41:23;22.20;97.00
41630;DHT22;27322;49.488;8.480;2022-09-12T11:44:08;22.30;96.20
41630;DHT22;27322;49.488;8.480;2022-09-12T11:46:37;22.30;96.00
41630;DHT22;27322;49.488;8.480;2022-09-12T11:54:51;22.20;97.00
41630;DHT22;27322;49.488;8.480;2022-09-12T11:57:27;22.20;95.90
41630;DHT22;27322;49.488;8.480;2022-09-12T12:05:43;22.70;94.60
41630;DHT22;27322;49.488;8.480;2022-09-12T12:08:12;22.70;93.80
41630;DHT22;27322;49.488;8.480;2022-09-12T12:10:41;23.10;94.40
41630;DHT22;27322;49.488;8.480;2022-09-12T12:13:19;23.50;92.60
41630;DHT22;27322;49.488;8.480;2022-09-12T12:16:33;23.70;92.10
41630;DHT22;27322;49.488;8.480;2022-09-12T12:18:37;23.80;91.70
41630;DHT22;27322;49.488;8.480;2022-09-12T12:34:40;24.10;91.00
41630;DHT22;27322;49.488;8.480;2022-09-12T12:47:44;23.30;90.10
41630;DHT22;27322;49.488;8.480;2022-09-12T12:50:13;23.80;89.70
41630;DHT22;27322;49.488;8.480;2022-09-12T12:55:36;25.20;81.60
41630;DHT22;27322;49.488;8.480;2022-09-12T12:58:04;25.80;77.00
41630;DHT22;27322;49.488;8.480;2022-09-12T13:00:32;26.30;74.50
41630;DHT22;27322;49.488;8.480;2022-09-12T13:05:43;26.50;71.40
41630;DHT22;27322;49.488;8.480;2022-09-12T13:08:33;26.30;70.00
41630;DHT22;27322;49.488;8.480;2022-09-12T13:11:32;26.00;71.40
41630;DHT22;27322;49.488;8.480;2022-09-12T13:14:04;26.00;73.40
41630;DHT22;27322;49.488;8.480;2022-09-12T13:16:34;26.80;70.90
41630;DHT22;27322;49.488;8.480;2022-09-12T13:19:12;27.80;67.20
41630;DHT22;27322;49.488;8.480;2022-09-12T13:24:22;29.40;58.50
41630;DHT22;27322;49.488;8.480;2022-09-12T13:26:48;30.30;56.90
41630;DHT22;27322;49.488;8.480;2022-09-12T13:29:19;30.90;55.80
41630;DHT22;27322;49.488;8.480;2022-09-12T13:31:51;31.00;55.80
41630;DHT22;27322;49.488;8.480;2022-09-12T13:34:21;30.50;55.60
41630;DHT22;27322;49.488;8.480;2022-09-12T13:37:19;29.90;56.50
41630;DHT22;27322;49.488;8.480;2022-09-12T13:42:48;28.90;59.40
41630;DHT22;27322;49.488;8.480;2022-09-12T13:45:24;29.10;59.50
41630;DHT22;27322;49.488;8.480;2022-09-12T13:47:56;29.30;59.10
41630;DHT22;27322;49.488;8.480;2022-09-12T13:50:24;29.00;58.70
41630;DHT22;27322;49.488;8.480;2022-09-12T13:52:56;28.80;62.00
41630;DHT22;27322;49.488;8.480;2022-09-12T13:55:27;28.80;61.50
41630;DHT22;27322;49.488;8.480;2022-09-12T14:03:42;29.70;55.80
41630;DHT22;27322;49.488;8.480;2022-09-12T14:06:41;30.20;56.20
41630;DHT22;27322;49.488;8.480;2022-09-12T14:09:36;30.70;55.30
41630;DHT22;27322;49.488;8.480;2022-09-12T14:12:03;31.20;55.10
41630;DHT22;27322;49.488;8.480;2022-09-12T14:14:35;31.70;54.50
41630;DHT22;27322;49.488;8.480;2022-09-12T14:17:17;31.90;54.70
41630;DHT22;27322;49.488;8.480;2022-09-12T14:19:45;33.00;52.80
41630;DHT22;27322;49.488;8.480;2022-09-12T14:22:12;34.40;51.10
41630;DHT22;27322;49.488;8.480;2022-09-12T14:24:48;35.90;46.10
41630;DHT22;27322;49.488;8.480;2022-09-12T14:27:17;36.80;43.40
41630;DHT22;27322;49.488;8.480;2022-09-12T14:29:44;36.80;42.90
41630;DHT22;27322;49.488;8.480;2022-09-12T14:32:21;36.80;43.20
41630;DHT22;27322;49.488;8.480;2022-09-12T14:37:36;36.30;43.40
41630;DHT22;27322;49.488;8.480;2022-09-12T14:40:02;35.60;45.60
41630;DHT22;27322;49.488;8.480;2022-09-12T14:42:31;34.70;47.40
41630;DHT22;27322;49.488;8.480;2022-09-12T14:45:08;33.80;47.50
41630;DHT22;27322;49.488;8.480;2022-09-12T14:47:41;32.80;47.60
41630;DHT22;27322;49.488;8.480;2022-09-12T14:50:23;31.90;47.60
41630;DHT22;27322;49.488;8.480;2022-09-12T14:55:31;30.40;48.50
41630;DHT22;27322;49.488;8.480;2022-09-12T15:03:31;28.60;52.60
41630;DHT22;27322;49.488;8.480;2022-09-12T15:05:58;28.00;55.40
41630;DHT22;27322;49.488;8.480;2022-09-12T15:08:24;27.50;56.60
41630;DHT22;27322;49.488;8.480;2022-09-12T15:10:51;27.00;58.30
41630;DHT22;27322;49.488;8.480;2022-09-12T15:13:19;26.50;58.80
41630;DHT22;27322;49.488;8.480;2022-09-12T15:15:54;26.20;60.10
41630;DHT22;27322;49.488;8.480;2022-09-12T15:18:21;25.80;59.00
41630;DHT22;27322;49.488;8.480;2022-09-12T15:20:49;25.50;59.20
41630;DHT22;27322;49.488;8.480;2022-09-12T15:25:49;25.00;63.50
41630;DHT22;27322;49.488;8.480;2022-09-12T15:28:18;24.80;65.90
41630;DHT22;27322;49.488;8.480;2022-09-12T15:30:46;24.60;66.30
41630;DHT22;27322;49.488;8.480;2022-09-12T15:33:13;24.40;68.70
41630;DHT22;27322;49.488;8.480;2022-09-12T15:35:39;24.30;69.40
41630;DHT22;27322;49.488;8.480;2022-09-12T15:38:05;24.10;69.50
41630;DHT22;27322;49.488;8.480;2022-09-12T15:40:30;23.90;70.80
41630;DHT22;27322;49.488;8.480;2022-09-12T15:42:56;23.80;72.80
41630;DHT22;27322;49.488;8.480;2022-09-12T15:45:25;23.70;70.00
41630;DHT22;27322;49.488;8.480;2022-09-12T15:47:52;23.60;74.20
41630;DHT22;27322;49.488;8.480;2022-09-12T15:50:18;23.50;76.00
41630;DHT22;27322;49.488;8.480;2022-09-12T15:52:44;23.40;75.40
41630;DHT22;27322;49.488;8.480;2022-09-12T15:55:21;23.30;76.50
41630;DHT22;27322;49.488;8.480;2022-09-12T15:57:46;23.20;80.60
41630;DHT22;27322;49.488;8.480;2022-09-12T16:00:13;23.20;82.90
41630;DHT22;27322;49.488;8.480;2022-09-12T16:02:40;23.10;83.60
41630;DHT22;27322;49.488;8.480;2022-09-12T16:05:15;23.00;85.60
41630;DHT22;27322;49.488;8.480;2022-09-12T16:07:42;22.90;87.30
41630;DHT22;27322;49.488;8.480;2022-09-12T16:10:17;22.80;84.40
41630;DHT22;27322;49.488;8.480;2022-09-12T16:12:44;22.70;81.10
41630;DHT22;27322;49.488;8.480;2022-09-12T16:15:17;22.70;83.00
41630;DHT22;27322;49.488;8.480;2022-09-12T16:17:43;22.70;87.40
41630;DHT22;27322;49.488;8.480;2022-09-12T16:20:09;22.70;88.10
41630;DHT22;27322;49.488;8.480;2022-09-12T16:22:35;22.60;90.20
41630;DHT22;27322;49.488;8.480;2022-09-12T16:25:02;22.50;90.80
41630;DHT22;27322;49.488;8.480;2022-09-12T16:27:27;22.50;91.10
41630;DHT22;27322;49.488;8.480;2022-09-12T16:29:53;22.40;92.00
41630;DHT22;27322;49.488;8.480;2022-09-12T16:32:19;22.30;92.80
41630;DHT22;27322;49.488;8.480;2022-09-12T16:34:44;22.30;93.40
41630;DHT22;27322;49.488;8.480;2022-09-12T16:37:10;22.20;94.40
41630;DHT22;27322;49.488;8.480;2022-09-12T16:39:35;22.20;94.90
41630;DHT22;27322;49.488;8.480;2022-09-12T16:42:01;22.10;95.20
41630;DHT22;27322;49.488;8.480;2022-09-12T16:44:27;22.00;95.10
41630;DHT22;27322;49.488;8.480;2022-09-12T16:46:53;22.00;94.40
41630;DHT22;27322;49.488;8.480;2022-09-12T16:49:18;22.00;94.90
41630;DHT22;27322;49.488;8.480;2022-09-12T16:51:44;21.90;95.40
41630;DHT22;27322;49.488;8.480;2022-09-12T16:54:13;21.90;96.00
41630;DHT22;27322;49.488;8.480;2022-09-12T16:56:39;21.90;95.70
41630;DHT22;27322;49.488;8.480;2022-09-12T16:59:05;21.80;96.00
41630;DHT22;27322;49.488;8.480;2022-09-12T17:01:31;21.80;96.50
41630;DHT22;27322;49.488;8.480;2022-09-12T17:03:59;21.70;95.50
41630;DHT22;27322;49.488;8.480;2022-09-12T17:06:26;21.70;96.40
41630;DHT22;27322;49.488;8.480;2022-09-12T17:08:53;21.70;96.90
41630;DHT22;27322;49.488;8.480;2022-09-12T17:11:25;21.60;96.70
41630;DHT22;27322;49.488;8.480;2022-09-12T17:13:53;21.60;96.50
41630;DHT22;27322;49.488;8.480;2022-09-12T17:16:20;21.50;96.10
41630;DHT22;27322;49.488;8.480;2022-09-12T17:18:46;21.50;96.20
41630;DHT22;27322;49.488;8.480;2022-09-12T17:21:12;21.50;96.80
41630;DHT22;27322;49.488;8.480;2022-09-12T17:23:39;21.40;96.90
41630;DHT22;27322;49.488;8.480;2022-09-12T17:26:06;21.30;97.30
41630;DHT22;27322;49.488;8.480;2022-09-12T17:28:32;21.30;97.30
41630;DHT22;27322;49.488;8.480;2022-09-12T17:31:03;21.30;96.70
41630;DHT22;27322;49.488;8.480;2022-09-12T17:33:29;21.30;98.10
41630;DHT22;27322;49.488;8.480;2022-09-12T17:35:59;21.20;98.30
41630;DHT22;27322;49.488;8.480;2022-09-12T17:38:26;21.20;98.10
41630;DHT22;27322;49.488;8.480;2022-09-12T17:40:52;21.10;97.80
41630;DHT22;27322;49.488;8.480;2022-09-12T17:43:18;21.10;98.30
41630;DHT22;27322;49.488;8.480;2022-09-12T17:45:44;21.00;97.80
41630;DHT22;27322;49.488;8.480;2022-09-12T17:48:10;21.00;97.90
41630;DHT22;27322;49.488;8.480;2022-09-12T17:50:36;20.90;99.30
41630;DHT22;27322;49.488;8.480;2022-09-12T17:53:02;20.90;98.90
41630;DHT22;27322;49.488;8.480;2022-09-12T17:55:28;20.90;98.90
41630;DHT22;27322;49.488;8.480;2022-09-12T17:57:59;20.80;99.50
41630;DHT22;27322;49.488;8.480;2022-09-12T18:00:26;20.70;99.70
41630;DHT22;27322;49.488;8.480;2022-09-12T18:03:13;20.70;99.30
41630;DHT22;27322;49.488;8.480;2022-09-12T18:05:46;20.60;98.80
41630;DHT22;27322;49.488;8.480;2022-09-12T18:08:12;20.60;99.10
41630;DHT22;27322;49.488;8.480;2022-09-12T18:10:38;20.50;98.90
41630;DHT22;27322;49.488;8.480;2022-09-12T18:13:04;20.50;98.60
41630;DHT22;27322;49.488;8.480;2022-09-12T18:15:32;20.50;98.90
41630;DHT22;27322;49.488;8.480;2022-09-12T18:18:02;20.40;99.30
41630;DHT22;27322;49.488;8.480;2022-09-12T18:20:27;20.40;99.80
41630;DHT22;27322;49.488;8.480;2022-09-12T18:22:53;20.40;99.90
41630;DHT22;27322;49.488;8.480;2022-09-12T18:25:19;20.40;99.30
41630;DHT22;27322;49.488;8.480;2022-09-12T18:27:44;20.40;99.10
41630;DHT22;27322;49.488;8.480;2022-09-12T18:30:10;20.40;99.90
41630;DHT22;27322;49.488;8.480;2022-09-12T18:32:37;20.30;99.90
41630;DHT22;27322;49.488;8.480;2022-09-12T18:35:03;20.20;99.90